Map

Track Data

SID SEASON NUMBER BASIN SUBBASIN NAME ISO_TIME NATURE LAT LON WMO_WIND WMO_PRES WMO_AGENCY TRACK_TYPE DIST2LAND LANDFALL IFLAG USA_AGENCY USA_ATCF_ID USA_LAT USA_LON USA_RECORD USA_STATUS USA_WIND USA_PRES USA_SSHS USA_R34_NE USA_R34_SE USA_R34_SW USA_R34_NW USA_R50_NE USA_R50_SE USA_R50_SW USA_R50_NW USA_R64_NE USA_R64_SE USA_R64_SW USA_R64_NW USA_POCI USA_ROCI USA_RMW USA_EYE TOKYO_LAT TOKYO_LON TOKYO_GRADE TOKYO_WIND TOKYO_PRES TOKYO_R50_DIR TOKYO_R50_LONG TOKYO_R50_SHORT TOKYO_R30_DIR TOKYO_R30_LONG TOKYO_R30_SHORT TOKYO_LAND CMA_LAT CMA_LON CMA_CAT CMA_WIND CMA_PRES HKO_LAT HKO_LON HKO_CAT HKO_WIND HKO_PRES NEWDELHI_LAT NEWDELHI_LON NEWDELHI_GRADE NEWDELHI_WIND NEWDELHI_PRES NEWDELHI_CI NEWDELHI_DP NEWDELHI_POCI REUNION_LAT REUNION_LON REUNION_TYPE REUNION_WIND REUNION_PRES REUNION_TNUM REUNION_CI REUNION_RMW REUNION_R34_NE REUNION_R34_SE REUNION_R34_SW REUNION_R34_NW REUNION_R50_NE REUNION_R50_SE REUNION_R50_SW REUNION_R50_NW REUNION_R64_NE REUNION_R64_SE REUNION_R64_SW REUNION_R64_NW BOM_LAT BOM_LON BOM_TYPE BOM_WIND BOM_PRES BOM_TNUM BOM_CI BOM_RMW BOM_R34_NE BOM_R34_SE BOM_R34_SW BOM_R34_NW BOM_R50_NE BOM_R50_SE BOM_R50_SW BOM_R50_NW BOM_R64_NE BOM_R64_SE BOM_R64_SW BOM_R64_NW BOM_ROCI BOM_POCI BOM_EYE BOM_POS_METHOD BOM_PRES_METHOD NADI_LAT NADI_LON NADI_CAT NADI_WIND NADI_PRES WELLINGTON_LAT WELLINGTON_LON WELLINGTON_WIND WELLINGTON_PRES DS824_LAT DS824_LON DS824_STAGE DS824_WIND DS824_PRES TD9636_LAT TD9636_LON TD9636_STAGE TD9636_WIND TD9636_PRES TD9635_LAT TD9635_LON TD9635_WIND TD9635_PRES TD9635_ROCI NEUMANN_LAT NEUMANN_LON NEUMANN_CLASS NEUMANN_WIND NEUMANN_PRES MLC_LAT MLC_LON MLC_CLASS MLC_WIND MLC_PRES USA_GUST BOM_GUST BOM_GUST_PER REUNION_GUST REUNION_GUST_PER USA_SEAHGT USA_SEARAD_NE USA_SEARAD_SE USA_SEARAD_SW USA_SEARAD_NW STORM_SPEED STORM_DIR
1912122S10069 1912 21 SI MM NOT_NAMED 1912-04-30 18:00:00 NR -9.50000 69.3000 main 1720 1704 __________O___ -1 -9.50000 69.3000 7 3 244
1912122S10069 1912 21 SI MM NOT_NAMED 1912-04-30 21:00:00 NR -9.56252 69.1656 main 1704 1688 __________P___ -1 -9.56252 69.1656 7 3 243
1912122S10069 1912 21 SI MM NOT_NAMED 1912-05-01 00:00:00 NR -9.64002 69.0249 main 1688 1673 __________P___ -1 -9.64002 69.0249 7 3 238
1912122S10069 1912 21 SI MM NOT_NAMED 1912-05-01 03:00:00 NR -9.74751 68.8718 main 1673 1641 __________P___ -1 -9.74751 68.8718 7 4 231
1912122S10069 1912 21 SI MM NOT_NAMED 1912-05-01 06:00:00 NR -9.90000 68.7000 main 1641 1610 __________O___ -1 -9.90000 68.7000 7 5 225
1912122S10069 1912 21 SI MM NOT_NAMED 1912-05-01 09:00:00 NR -10.1069 68.5047 main 1610 1579 __________P___ -1 -10.1069 68.5047 7 6 222
1912122S10069 1912 21 SI MM NOT_NAMED 1912-05-01 12:00:00 NR -10.3550 68.2875 main 1571 1539 __________P___ -1 -10.3550 68.2875 7 7 221
1912122S10069 1912 21 SI MM NOT_NAMED 1912-05-01 15:00:00 NR -10.6256 68.0515 main 1539 1493 __________P___ -1 -10.6256 68.0515 7 7 221
1912122S10069 1912 21 SI MM NOT_NAMED 1912-05-01 18:00:00 NR -10.9000 67.8000 main 1493 1454 __________O___ -1 -10.9000 67.8000 7 7 226
1912122S10069 1912 21 SI MM NOT_NAMED 1912-05-01 21:00:00 NR -11.1461 67.5110 main 1454 1407 __________P___ -1 -11.1461 67.5110 7 8 229
1912122S10069 1912 21 SI MM NOT_NAMED 1912-05-02 00:00:00 NR -11.3927 67.2127 main 1407 1368 __________P___ -1 -11.3927 67.2127 7 8 229
1912122S10069 1912 21 SI MM NOT_NAMED 1912-05-02 03:00:00 NR -11.6430 66.9329 main 1368 1328 __________P___ -1 -11.6430 66.9329 7 7 225
1912122S10069 1912 21 SI MM NOT_NAMED 1912-05-02 06:00:00 NR -11.9000 66.7000 main 1328 1289 __________O___ -1 -11.9000 66.7000 7 7 216
1912122S10069 1912 21 SI MM NOT_NAMED 1912-05-02 09:00:00 NR -12.1798 66.5373 main 1289 1266 __________P___ -1 -12.1798 66.5373 7 6 205
1912122S10069 1912 21 SI MM NOT_NAMED 1912-05-02 12:00:00 NR -12.4648 66.4248 main 1258 1243 __________P___ -1 -12.4648 66.4248 7 6 198
1912122S10069 1912 21 SI MM NOT_NAMED 1912-05-02 15:00:00 NR -12.7424 66.3499 main 1235 1212 __________P___ -1 -12.7424 66.3499 7 6 193
1912122S10069 1912 21 SI MM NOT_NAMED 1912-05-02 18:00:00 NR -13.0000 66.3000 main 1212 1189 __________O___ -1 -13.0000 66.3000 7 5 193
1912122S10069 1912 21 SI MM NOT_NAMED 1912-05-02 21:00:00 NR -13.1850 66.2452 main 1189 1182 __________P___ -1 -13.1850 66.2452 7 4 195
1912122S10069 1912 21 SI MM NOT_NAMED 1912-05-03 00:00:00 NR -13.3550 66.2124 main 1174 1167 __________P___ -1 -13.3550 66.2124 7 4 186
1912122S10069 1912 21 SI MM NOT_NAMED 1912-05-03 03:00:00 NR -13.5475 66.1984 main 1167 1146 __________P___ -1 -13.5475 66.1984 7 4 184
1912122S10069 1912 21 SI MM NOT_NAMED 1912-05-03 06:00:00 NR -13.8000 66.2000 main 1146 1125 __________O___ -1 -13.8000 66.2000 7 6 0
1912122S10069 1912 21 SI MM NOT_NAMED 1912-05-03 09:00:00 NR -14.1684 66.1945 main 1118 1091 __________P___ -1 -14.1684 66.1945 7 8 0
1912122S10069 1912 21 SI MM NOT_NAMED 1912-05-03 12:00:00 NR -14.5975 66.2052 main 1091 1066 __________P___ -1 -14.5975 66.2052 7 9 177
1912122S10069 1912 21 SI MM NOT_NAMED 1912-05-03 15:00:00 NR -15.0528 66.2383 main 1060 1045 __________P___ -1 -15.0528 66.2383 7 9 175
1912122S10069 1912 21 SI MM NOT_NAMED 1912-05-03 18:00:00 NR -15.5000 66.3000 main 1045 1032 __________O___ -1 -15.5000 66.3000 7 9 170
1912122S10069 1912 21 SI MM NOT_NAMED 1912-05-03 21:00:00 NR -15.8975 66.3881 main 1032 1021 __________P___ -1 -15.8975 66.3881 7 8 166
1912122S10069 1912 21 SI MM NOT_NAMED 1912-05-04 00:00:00 NR -16.2800 66.5050 main 1021 1016 __________P___ -1 -16.2800 66.5050 7 8 162
1912122S10069 1912 21 SI MM NOT_NAMED 1912-05-04 03:00:00 NR -16.6475 66.6444 main 1016 1011 __________P___ -1 -16.6475 66.6444 7 8 159
1912122S10069 1912 21 SI MM NOT_NAMED 1912-05-04 06:00:00 NR -17.0000 66.8000 main 1017 1013 __________O___ -1 -17.0000 66.8000 7 8 158
1912122S10069 1912 21 SI MM NOT_NAMED 1912-05-04 09:00:00 NR -17.3556 66.9526 main 1020 1017 __________P___ -1 -17.3556 66.9526 7 8 156
1912122S10069 1912 21 SI MM NOT_NAMED 1912-05-04 12:00:00 NR -17.6949 67.1201 main 1019 1019 __________P___ -1 -17.6949 67.1201 7 7 153
1912122S10069 1912 21 SI MM NOT_NAMED 1912-05-04 15:00:00 NR -18.0118 67.3026 main 1030 1027 __________P___ -1 -18.0118 67.3026 7 7 149
1912122S10069 1912 21 SI MM NOT_NAMED 1912-05-04 18:00:00 NR -18.3000 67.5000 main 1042 1039 __________O___ -1 -18.3000 67.5000 7 7 145
1912122S10069 1912 21 SI MM NOT_NAMED 1912-05-04 21:00:00 NR -18.5495 67.6948 main 1057 1055 __________P___ -1 -18.5495 67.6948 7 6 141
1912122S10069 1912 21 SI MM NOT_NAMED 1912-05-05 00:00:00 NR -18.7722 67.9056 main 1071 1071 __________P___ -1 -18.7722 67.9056 7 6 136
1912122S10069 1912 21 SI MM NOT_NAMED 1912-05-05 03:00:00 NR -18.9838 68.1386 main 1088 1088 __________P___ -1 -18.9838 68.1386 7 6 132
1912122S10069 1912 21 SI MM NOT_NAMED 1912-05-05 06:00:00 NR -19.2000 68.4000 main 1115 1115 __________O___ -1 -19.2000 68.4000 7 7 132
1912122S10069 1912 21 SI MM NOT_NAMED 1912-05-05 09:00:00 NR -19.4550 68.6921 main 1142 1142 __________P___ -1 -19.4550 68.6921 7 8 132
1912122S10069 1912 21 SI MM NOT_NAMED 1912-05-05 12:00:00 NR -19.7150 69.0123 main 1171 1171 __________P___ -1 -19.7150 69.0123 7 8 130
1912122S10069 1912 21 SI MM NOT_NAMED 1912-05-05 15:00:00 NR -19.9674 69.3515 main 1211 1211 __________P___ -1 -19.9674 69.3515 7 8 127
1912122S10069 1912 21 SI MM NOT_NAMED 1912-05-05 18:00:00 NR -20.2000 69.7000 main 1241 1241 __________O___ -1 -20.2000 69.7000 7 8 125
1912122S10069 1912 21 SI MM NOT_NAMED 1912-05-05 21:00:00 NR -20.3960 70.0150 main 1271 1271 __________P___ -1 -20.3960 70.0150 7 7 122
1912122S10069 1912 21 SI MM NOT_NAMED 1912-05-06 00:00:00 NR -20.5716 70.3410 main 1302 1302 __________P___ -1 -20.5716 70.3410 7 7 118
1912122S10069 1912 21 SI MM NOT_NAMED 1912-05-06 03:00:00 NR -20.7364 70.6963 main 1343 1343 __________P___ -1 -20.7364 70.6963 7 8 115
1912122S10069 1912 21 SI MM NOT_NAMED 1912-05-06 06:00:00 NR -20.9000 71.1000 main 1385 1385 __________O___ -1 -20.9000 71.1000 7 9 112
1912122S10069 1912 21 SI MM NOT_NAMED 1912-05-06 09:00:00 NR -21.0709 71.5669 main 1437 1437 __________P___ -1 -21.0709 71.5669 7 10 110
1912122S10069 1912 21 SI MM NOT_NAMED 1912-05-06 12:00:00 NR -21.2424 72.0830 main 1489 1489 __________P___ -1 -21.2424 72.0830 7 11 109
1912122S10069 1912 21 SI MM NOT_NAMED 1912-05-06 15:00:00 NR -21.4177 72.6326 main 1541 1541 __________P___ -1 -21.4177 72.6326 7 11 109
1912122S10069 1912 21 SI MM NOT_NAMED 1912-05-06 18:00:00 NR -21.6000 73.2000 main 1604 1604 __________O___ -1 -21.6000 73.2000 7 11 109
1912122S10069 1912 21 SI MM NOT_NAMED 1912-05-06 21:00:00 NR -21.7919 73.7720 main 1667 1667 __________P___ -1 -21.7919 73.7720 7 11 110
1912122S10069 1912 21 SI MM NOT_NAMED 1912-05-07 00:00:00 NR -21.9913 74.3460 main 1720 1720 __________P___ -1 -21.9913 74.3460 7 11 111
1912122S10069 1912 21 SI MM NOT_NAMED 1912-05-07 03:00:00 NR -22.1951 74.9221 main 1783 1783 __________P___ -1 -22.1951 74.9221 7 11 111
1912122S10069 1912 21 SI MM NOT_NAMED 1912-05-07 06:00:00 NR -22.4000 75.5000 main 1846 __________O___ -1 -22.4000 75.5000 7 11 111

About IBTrACS Database

This database is a web-friendly format of International Best Track Archive for Climate Stewardship (IBTrACS), a global best track data archive curated by NOAA dating back to 1842.

Updated: 2021-10-25